^^
Station Historical Data
Daily Summary for September 10, 2017 Units:  English    Metric   Both
« Previous Day
Next Day »
Daily Weekly Monthly Yearly Custom
  High: Low: Average:
Temperature: 70.5 °F 53.8 °F 61.4 °F
Dew Point: 53.8 °F 47.6 °F 50.8 °F
Humidity: 90% 45% 70%
Wind Speed: 6.0mph 0.0mph 1.3mph
Wind Gust: 14.0mph - -
Wind- - WSW
Pressure: 30.38 in 30.31 in -
Precipitation: 0.00 in    
Historical Graphs
 
 
Tabular Data for September 10, 2017
Time Temperature Dew Point Pressure Wind Wind Speed Wind Gust Humidity Rainfall Rate (Hourly) Conditions
00:00 56.0 °F 50.9 °F 30.31 in NW 1.0 mph 5.0 mph 83% 0.00 in CLR
00:15 55.8 °F 51.0 °F 30.31 in NNW 1.0 mph 5.0 mph 84% 0.00 in CLR
00:30 56.0 °F 51.2 °F 30.31 in North 1.0 mph 5.0 mph 84% 0.00 in CLR
00:45 56.2 °F 51.4 °F 30.31 in Calm   4.0 mph 84% 0.00 in CLR
02:15 55.5 °F 51.7 °F 30.31 in Calm   4.0 mph 87% 0.00 in SCT
02:30 55.4 °F 51.6 °F 30.31 in North 1.0 mph 6.0 mph 87% 0.00 in SCT
02:45 55.2 °F 51.7 °F 30.31 in NW 1.0 mph 5.0 mph 88% 0.00 in SCT
03:00 55.0 °F 51.5 °F 30.31 in Calm   4.0 mph 88% 0.00 in SCT
03:15 54.6 °F 51.4 °F 30.31 in Calm   3.0 mph 89% 0.00 in FEW
03:30 54.4 °F 51.2 °F 30.32 in Calm   4.0 mph 89% 0.00 in FEW
03:45 54.2 °F 51.0 °F 30.32 in Calm   2.0 mph 89% 0.00 in FEW
04:00 54.1 °F 51.2 °F 30.32 in Calm   2.0 mph 90% 0.00 in FEW
04:15 53.8 °F 50.9 °F 30.32 in NW 1.0 mph 3.0 mph 90% 0.00 in CLR
04:30 53.8 °F 50.9 °F 30.32 in Calm   3.0 mph 90% 0.00 in CLR
04:45 54.0 °F 51.1 °F 30.33 in Calm   5.0 mph 90% 0.00 in CLR
05:00 54.1 °F 51.2 °F 30.33 in NW 2.0 mph 5.0 mph 90% 0.00 in CLR
05:15 54.1 °F 50.9 °F 30.32 in Calm   6.0 mph 89% 0.00 in CLR
05:30 54.2 °F 51.0 °F 30.33 in Calm   6.0 mph 89% 0.00 in CLR
05:45 54.2 °F 50.7 °F 30.33 in NNW 1.0 mph 8.0 mph 88% 0.00 in CLR
06:00 54.3 °F 50.8 °F 30.34 in NNW 1.0 mph 8.0 mph 88% 0.00 in CLR
06:15 54.2 °F 50.4 °F 30.34 in NW 1.0 mph 7.0 mph 87% 0.00 in CLR
06:30 54.2 °F 50.4 °F 30.35 in WNW 1.0 mph 6.0 mph 87% 0.00 in CLR
06:45 54.2 °F 50.4 °F 30.35 in NNW 2.0 mph 8.0 mph 87% 0.00 in CLR
07:00 54.5 °F 50.4 °F 30.36 in NNW 3.0 mph 9.0 mph 86% 0.00 in CLR
07:15 54.5 °F 50.4 °F 30.36 in WNW 1.0 mph 5.0 mph 86% 0.00 in CLR
07:30 54.6 °F 50.5 °F 30.37 in NNW 2.0 mph 5.0 mph 86% 0.00 in CLR
07:45 55.0 °F 50.5 °F 30.37 in Calm   5.0 mph 85% 0.00 in CLR
08:00 55.5 °F 50.7 °F 30.37 in Calm   4.0 mph 84% 0.00 in CLR
08:15 56.2 °F 51.1 °F 30.37 in NNW 2.0 mph 8.0 mph 83% 0.00 in CLR
08:30 57.2 °F 51.5 °F 30.37 in North 1.0 mph 4.0 mph 81% 0.00 in CLR
08:45 58.7 °F 51.9 °F 30.38 in NE 1.0 mph 5.0 mph 78% 0.00 in CLR
09:00 59.8 °F 52.2 °F 30.38 in North 3.0 mph 7.0 mph 76% 0.00 in CLR
09:15 60.5 °F 52.6 °F 30.38 in Calm   8.0 mph 75% 0.00 in CLR
09:30 61.1 °F 52.0 °F 30.38 in NNW 5.0 mph 13.0 mph 72% 0.00 in CLR
09:45 61.8 °F 51.9 °F 30.38 in NNW 3.0 mph 8.0 mph 70% 0.00 in CLR
10:00 62.8 °F 52.5 °F 30.38 in North 2.0 mph 8.0 mph 69% 0.00 in CLR
10:15 63.4 °F 52.3 °F 30.38 in NNW 2.0 mph 10.0 mph 67% 0.00 in FEW
10:30 64.2 °F 53.0 °F 30.38 in NNW 1.0 mph 10.0 mph 67% 0.00 in FEW
10:45 65.0 °F 52.9 °F 30.38 in NNE 3.0 mph 9.0 mph 65% 0.00 in FEW
11:00 65.6 °F 53.5 °F 30.38 in NNW 1.0 mph 7.0 mph 65% 0.00 in FEW
11:15 66.2 °F 53.7 °F 30.38 in North 2.0 mph 8.0 mph 64% 0.00 in FEW
11:30 66.3 °F 52.8 °F 30.38 in NNE 3.0 mph 10.0 mph 62% 0.00 in FEW
11:45 66.5 °F 53.1 °F 30.38 in North 3.0 mph 13.0 mph 62% 0.00 in FEW
12:00 67.1 °F 52.3 °F 30.38 in NE 6.0 mph 13.0 mph 59% 0.00 in FEW
12:15 67.4 °F 53.0 °F 30.37 in NNW 3.0 mph 12.0 mph 60% 0.00 in FEW
12:30 67.5 °F 52.7 °F 30.37 in NNW 3.0 mph 14.0 mph 59% 0.00 in FEW
12:45 68.1 °F 53.2 °F 30.36 in NW 2.0 mph 12.0 mph 59% 0.00 in FEW
13:00 68.7 °F 53.8 °F 30.37 in NNW 2.0 mph 13.0 mph 59% 0.00 in FEW
13:15 68.5 °F 53.1 °F 30.36 in NNW 3.0 mph 9.0 mph 58% 0.00 in FEW
13:30 69.0 °F 52.6 °F 30.36 in NW 5.0 mph 10.0 mph 56% 0.00 in FEW
13:45 68.6 °F 52.8 °F 30.36 in NNW 1.0 mph 10.0 mph 57% 0.00 in FEW
14:00 69.8 °F 53.4 °F 30.36 in North 2.0 mph 12.0 mph 56% 0.00 in FEW
14:15 69.4 °F 52.0 °F 30.36 in NW 2.0 mph 12.0 mph 54% 0.00 in SCT
14:30 69.5 °F 50.5 °F 30.35 in North 6.0 mph 10.0 mph 51% 0.00 in SCT
14:45 70.1 °F 51.1 °F 30.35 in North 2.0 mph 9.0 mph 51% 0.00 in SCT
15:00 70.3 °F 51.3 °F 30.35 in NW 2.0 mph 12.0 mph 51% 0.00 in SCT
15:15 70.3 °F 51.9 °F 30.35 in North 1.0 mph 12.0 mph 52% 0.00 in SCT
15:30 70.2 °F 50.6 °F 30.35 in NNE 2.0 mph 10.0 mph 50% 0.00 in SCT
15:45 70.5 °F 51.0 °F 30.34 in WNW 2.0 mph 9.0 mph 50% 0.00 in SCT
16:00 70.0 °F 48.3 °F 30.35 in North 2.0 mph 9.0 mph 46% 0.00 in SCT
16:15 70.1 °F 48.4 °F 30.35 in North 2.0 mph 10.0 mph 46% 0.00 in FEW
16:30 70.3 °F 47.9 °F 30.35 in North 2.0 mph 10.0 mph 45% 0.00 in FEW
16:45 70.1 °F 48.4 °F 30.35 in NNE 2.0 mph 7.0 mph 46% 0.00 in FEW
17:00 70.1 °F 48.4 °F 30.35 in NNE 2.0 mph 7.0 mph 46% 0.00 in FEW
17:15 70.2 °F 48.5 °F 30.35 in North 1.0 mph 6.0 mph 46% 0.00 in FEW
17:30 70.0 °F 48.3 °F 30.35 in NW 3.0 mph 9.0 mph 46% 0.00 in FEW
17:45 69.6 °F 48.5 °F 30.35 in NW 1.0 mph 7.0 mph 47% 0.00 in FEW
18:00 69.3 °F 47.6 °F 30.35 in NW 1.0 mph 6.0 mph 46% 0.00 in FEW
18:15 68.9 °F 48.4 °F 30.35 in Calm   4.0 mph 48% 0.00 in CLR
18:45 67.9 °F 49.1 °F 30.35 in Calm   2.0 mph 51% 0.00 in CLR
19:00 66.6 °F 51.4 °F 30.35 in Calm     58% 0.00 in CLR
19:15 64.0 °F 49.8 °F 30.35 in Calm     60% 0.00 in CLR
19:30 62.4 °F 49.2 °F 30.35 in Calm     62% 0.00 in CLR
19:45 61.3 °F 49.8 °F 30.35 in Calm   1.0 mph 66% 0.00 in CLR
20:00 60.5 °F 49.9 °F 30.35 in Calm     68% 0.00 in CLR
20:15 60.0 °F 49.4 °F 30.35 in Calm     68% 0.00 in CLR
20:30 59.5 °F 49.0 °F 30.35 in Calm     68% 0.00 in CLR
20:45 59.1 °F 48.9 °F 30.36 in Calm   1.0 mph 69% 0.00 in CLR
21:00 58.6 °F 48.8 °F 30.36 in Calm     70% 0.00 in CLR
21:15 58.2 °F 48.9 °F 30.36 in Calm     71% 0.00 in CLR
21:30 57.7 °F 49.1 °F 30.36 in Calm     73% 0.00 in CLR
21:45 57.7 °F 49.1 °F 30.36 in Calm     73% 0.00 in CLR
22:00 56.7 °F 48.8 °F 30.36 in Calm     75% 0.00 in CLR
22:15 56.1 °F 49.3 °F 30.37 in Calm   1.0 mph 78% 0.00 in CLR
22:30 57.9 °F 49.3 °F 30.37 in Calm   1.0 mph 73% 0.00 in CLR
23:00 55.6 °F 49.5 °F 30.38 in Calm   1.0 mph 80% 0.00 in CLR
23:30 58.0 °F 51.2 °F 30.37 in Calm   2.0 mph 78% 0.00 in CLR
23:45 58.2 °F 51.7 °F 30.37 in Calm   1.0 mph 79% 0.00 in CLR
TarryTown NY Weather
Compliments of Weather Underground - 1.5 mb